Sisseton, South Dakota
Current Conditions -  °F | °C
As of 3:56 PM on Thursday 27 Nov 2014 (Local Time) from KETH Reporting Station
Scattered Clouds Scattered Clouds  
Wind Chill: -15°   Ceiling: Unl
Heat Index:   Visibility: 10mi
Dew Point: -4°   Wind: 15mph
Humidity: 72%   Direction: 130°SE
Pressure: 30.34"   Gusts: NA
Location:  45.66°N, 97.05°W
Report Text: KETH 272156Z AUTO 13013KT 10SM SCT100 M16/M20 A3034 RMK AO2
Loading
Personal Weather Stations






























Interactive Weather Map New forecast layout! Learn more

10-Day Weather Forecast

Advertisements
Track Severe Weather on mobile